Time;durP1;ratioP1;P1;durP2;ratioP2;P2;SDS_P1;SDS_P2;PMS_P1;PMS_P2;Temp;Humidity;BMP_temperature;BMP_pressure;BME280_temperature;BME280_humidity;BME280_pressure;Samples;Min_cycle;Max_cycle;Signal;HPM_P1;HPM_P2
2021/01/28 17:59:53;;;;;;;1999.90;999.90;;;;;;;;;;5055181;28;20430;-79
2021/01/28 18:02:19;;;;;;;1999.90;999.90;;;;;;;;;;5047291;28;20497;-81
2021/01/28 18:04:44;;;;;;;1999.90;999.90;;;;;;;;;;5041380;28;20029;-79
2021/01/28 18:07:10;;;;;;;1999.90;999.90;;;;;;;;;;5039969;28;20136;-80
2021/01/28 18:09:35;;;;;;;1999.90;999.90;;;;;;;;;;5036700;28;20071;-79
2021/01/28 18:12:02;;;;;;;1999.90;999.90;;;;;;;;;;5047015;28;20381;-80
2021/01/28 18:14:28;;;;;;;1999.90;999.90;;;;;;;;;;5042488;28;20048;-79
2021/01/28 18:16:53;;;;;;;1999.90;999.90;;;;;;;;;;5042900;28;20033;-78
2021/01/28 18:19:19;;;;;;;1999.90;999.90;;;;;;;;;;5039119;28;20042;-79
2021/01/28 18:21:44;;;;;;;1999.90;999.90;;;;;;;;;;5038024;28;20116;-80
2021/01/28 18:24:13;;;;;;;1999.90;999.90;;;;;;;;;;5042067;28;20021;-78
2021/01/28 18:26:39;;;;;;;1999.90;999.90;;;;;;;;;;5036361;28;20077;-78
2021/01/28 18:29:04;;;;;;;1999.90;999.90;;;;;;;;;;5039318;28;20066;-78
2021/01/28 18:31:30;;;;;;;1999.90;999.90;;;;;;;;;;5039378;28;20018;-77
2021/01/28 18:33:56;;;;;;;1999.90;999.90;;;;;;;;;;5041299;28;20025;-78
2021/01/28 18:36:21;;;;;;;1999.90;999.90;;;;;;;;;;5034119;28;20484;-79
2021/01/28 18:38:46;;;;;;;1999.90;999.90;;;;;;;;;;5040159;28;20033;-79
2021/01/28 18:41:12;;;;;;;1999.90;999.90;;;;;;;;;;5028422;28;20026;-79
2021/01/28 18:43:39;;;;;;;1999.90;999.90;;;;;;;;;;5032610;28;20022;-78
2021/01/28 18:46:05;;;;;;;238.43;219.82;;;;;;;;;;5039224;28;20392;-77
2021/01/28 18:48:30;;;;;;;1999.90;999.90;;;;;;;;;;5042305;28;20220;-77
2021/01/28 18:50:56;;;;;;;1999.90;999.90;;;;;;;;;;5038918;28;20029;-79
2021/01/28 18:53:21;;;;;;;702.22;436.02;;;;;;;;;;5041428;28;20025;-81
2021/01/28 18:55:49;;;;;;;210.18;193.90;;;;;;;;;;5045846;28;20087;-81
2021/01/28 18:58:15;;;;;;;1999.90;999.90;;;;;;;;;;5039349;28;20041;-79
2021/01/28 19:00:40;;;;;;;1999.90;999.90;;;;;;;;;;5037674;28;20033;-78
2021/01/28 19:03:06;;;;;;;1999.90;999.90;;;;;;;;;;5048985;28;20389;-79
2021/01/28 19:05:31;;;;;;;1999.90;999.90;;;;;;;;;;5047329;28;20067;-77
2021/01/28 19:07:58;;;;;;;1999.90;999.90;;;;;;;;;;5045829;28;20025;-78
2021/01/28 19:10:26;;;;;;;1564.85;809.65;;;;;;;;;;5029891;28;20044;-78
2021/01/28 19:12:54;;;;;;;1999.90;999.90;;;;;;;;;;5024764;28;20362;-78
2021/01/28 19:15:24;;;;;;;1566.75;811.55;;;;;;;;;;5027504;28;20021;-78
2021/01/28 19:17:50;;;;;;;1565.85;810.53;;;;;;;;;;5024384;28;20038;-78
2021/01/28 19:20:16;;;;;;;1999.90;999.90;;;;;;;;;;5031750;28;20030;-79
2021/01/28 19:22:41;;;;;;;266.00;245.23;;;;;;;;;;5031422;28;20100;-79
2021/01/28 19:25:07;;;;;;;265.23;244.43;;;;;;;;;;5032125;28;20036;-79
2021/01/28 19:27:32;;;;;;;263.42;242.63;;;;;;;;;;5038017;28;20030;-77
2021/01/28 19:30:02;;;;;;;1999.90;999.90;;;;;;;;;;5032076;28;20099;-80
2021/01/28 19:32:28;;;;;;;271.33;249.75;;;;;;;;;;5021560;28;20038;-78
2021/01/28 19:34:53;;;;;;;1999.90;999.90;;;;;;;;;;5044533;28;20527;-80
2021/01/28 19:37:18;;;;;;;262.52;242.10;;;;;;;;;;5024360;28;20080;-78
2021/01/28 19:39:44;;;;;;;270.00;248.93;;;;;;;;;;5029845;28;20037;-79
2021/01/28 19:42:09;;;;;;;1999.90;999.90;;;;;;;;;;5019496;28;20022;-80
2021/01/28 19:44:35;;;;;;;257.30;237.30;;;;;;;;;;5031039;28;20664;-79
2021/01/28 19:47:00;;;;;;;1127.38;617.40;;;;;;;;;;5027215;28;20042;-78
2021/01/28 19:49:26;;;;;;;258.30;238.25;;;;;;;;;;5031576;28;20031;-80
2021/01/28 19:51:51;;;;;;;254.55;234.77;;;;;;;;;;5033103;28;20045;-79
2021/01/28 19:54:17;;;;;;;246.43;227.70;;;;;;;;;;5026399;28;20026;-79
2021/01/28 19:56:45;;;;;;;244.35;226.05;;;;;;;;;;5029145;28;20184;-79
2021/01/28 19:59:10;;;;;;;239.07;221.18;;;;;;;;;;5036535;28;20041;-77
2021/01/28 20:01:36;;;;;;;253.63;234.75;;;;;;;;;;5035400;28;20030;-79
2021/01/28 20:04:02;;;;;;;236.13;218.63;;;;;;;;;;5033607;28;20025;-80
2021/01/28 20:06:27;;;;;;;237.80;220.05;;;;;;;;;;5029069;28;20572;-80
2021/01/28 20:08:53;;;;;;;234.55;216.88;;;;;;;;;;5027224;28;20029;-79
2021/01/28 20:11:18;;;;;;;235.43;217.88;;;;;;;;;;5033016;28;20026;-79
2021/01/28 20:13:43;;;;;;;274.77;254.57;;;;;;;;;;5019959;28;20025;-79
2021/01/28 20:16:09;;;;;;;218.50;201.68;;;;;;;;;;5017601;28;20477;-79
2021/01/28 20:18:34;;;;;;;244.18;225.43;;;;;;;;;;5026587;28;20075;-79
2021/01/28 20:21:02;;;;;;;227.05;209.80;;;;;;;;;;5029043;28;20025;-79
2021/01/28 20:23:27;;;;;;;230.25;212.90;;;;;;;;;;5021815;28;20429;-80
2021/01/28 20:25:53;;;;;;;239.15;221.45;;;;;;;;;;5026513;28;20107;-79
2021/01/28 20:28:18;;;;;;;224.65;208.13;;;;;;;;;;5029789;28;20018;-78
2021/01/28 20:30:44;;;;;;;228.10;210.57;;;;;;;;;;5030316;28;20029;-78
2021/01/28 20:33:10;;;;;;;227.40;210.32;;;;;;;;;;5029746;28;20021;-79
2021/01/28 20:35:36;;;;;;;228.63;211.60;;;;;;;;;;5019113;28;20390;-80
2021/01/28 20:38:02;;;;;;;220.68;203.88;;;;;;;;;;5024056;28;20033;-79
2021/01/28 20:40:33;;;;;;;219.32;202.75;;;;;;;;;;5027207;28;20490;-79
2021/01/28 20:43:00;;;;;;;230.27;212.88;;;;;;;;;;5029861;28;20029;-86
2021/01/28 20:45:26;;;;;;;232.60;215.45;;;;;;;;;;5022094;28;20029;-85
2021/01/28 20:47:51;;;;;;;219.15;202.93;;;;;;;;;;5024542;28;20044;-85
2021/01/28 20:50:17;;;;;;;225.30;208.35;;;;;;;;;;5018644;28;20067;-83
2021/01/28 20:52:42;;;;;;;240.10;222.15;;;;;;;;;;5027210;28;20045;-84
2021/01/28 20:55:10;;;;;;;238.02;220.07;;;;;;;;;;5017432;28;20104;-84
2021/01/28 20:57:35;;;;;;;225.07;207.98;;;;;;;;;;5027256;28;20137;-84
2021/01/28 21:00:01;;;;;;;229.82;212.52;;;;;;;;;;5030162;28;20037;-85
2021/01/28 21:02:27;;;;;;;223.75;206.82;;;;;;;;;;5028819;28;20022;-78
2021/01/28 21:04:52;;;;;;;222.82;206.25;;;;;;;;;;5020932;28;20107;-82
2021/01/28 21:07:18;;;;;;;225.27;208.25;;;;;;;;;;5028806;28;20025;-79
2021/01/28 21:09:43;;;;;;;243.60;225.32;;;;;;;;;;5017533;28;20046;-78
2021/01/28 21:12:09;;;;;;;217.10;200.68;;;;;;;;;;5024628;28;20036;-79
2021/01/28 21:14:34;;;;;;;226.43;209.30;;;;;;;;;;5026947;28;20017;-79
2021/01/28 21:17:00;;;;;;;238.95;221.23;;;;;;;;;;5026242;28;20660;-78
2021/01/28 21:19:25;;;;;;;217.85;201.48;;;;;;;;;;5024252;28;20552;-78
2021/01/28 21:21:50;;;;;;;221.45;204.77;;;;;;;;;;5019858;28;20406;-79
2021/01/28 21:24:16;;;;;;;220.30;203.35;;;;;;;;;;5018416;28;20049;-79
2021/01/28 21:26:41;;;;;;;216.30;199.35;;;;;;;;;;5024159;28;20544;-78
2021/01/28 21:29:06;;;;;;;237.95;220.25;;;;;;;;;;5023886;28;20045;-78
2021/01/28 21:31:32;;;;;;;214.35;198.15;;;;;;;;;;5028256;28;20072;-79
2021/01/28 21:33:57;;;;;;;236.75;219.38;;;;;;;;;;5027390;28;20115;-79
2021/01/28 21:36:23;;;;;;;209.65;193.90;;;;;;;;;;5014097;28;20662;-79
2021/01/28 21:38:48;;;;;;;211.75;196.07;;;;;;;;;;5012468;28;20034;-79
2021/01/28 21:41:15;;;;;;;226.65;210.05;;;;;;;;;;5012970;28;20033;-79
2021/01/28 21:43:42;;;;;;;206.90;191.55;;;;;;;;;;5017579;28;20025;-79
2021/01/28 21:46:07;;;;;;;217.48;201.40;;;;;;;;;;5014291;28;20156;-78
2021/01/28 21:48:33;;;;;;;218.05;201.85;;;;;;;;;;5021944;28;20132;-79
2021/01/28 21:50:58;;;;;;;225.80;208.98;;;;;;;;;;5021608;28;20036;-80
2021/01/28 21:53:24;;;;;;;217.70;200.60;;;;;;;;;;5022746;28;20033;-79
2021/01/28 21:55:50;;;;;;;215.35;199.15;;;;;;;;;;5028326;28;20596;-79
2021/01/28 21:58:15;;;;;;;223.50;206.27;;;;;;;;;;5022481;28;20165;-80
2021/01/28 22:00:41;;;;;;;229.23;211.70;;;;;;;;;;5017850;28;20049;-79
2021/01/28 22:03:07;;;;;;;224.80;207.93;;;;;;;;;;5018690;28;20109;-80
2021/01/28 22:05:32;;;;;;;221.57;205.10;;;;;;;;;;5018548;28;20501;-79
2021/01/28 22:07:58;;;;;;;227.20;209.85;;;;;;;;;;5030312;28;20025;-82
2021/01/28 22:10:24;;;;;;;221.60;204.25;;;;;;;;;;5026370;28;20036;-77
2021/01/28 22:12:49;;;;;;;225.85;208.65;;;;;;;;;;5022911;28;20026;-76
2021/01/28 22:15:16;;;;;;;226.32;209.02;;;;;;;;;;5023579;28;20565;-76
2021/01/28 22:17:42;;;;;;;261.73;241.57;;;;;;;;;;5020700;28;20053;-77
2021/01/28 22:20:08;;;;;;;222.07;205.25;;;;;;;;;;5019283;28;20033;-79
2021/01/28 22:22:33;;;;;;;236.32;217.82;;;;;;;;;;5025402;28;20021;-79
2021/01/28 22:24:59;;;;;;;225.73;208.75;;;;;;;;;;5017891;28;20044;-79
2021/01/28 22:27:24;;;;;;;243.70;225.13;;;;;;;;;;5014815;28;20085;-79
2021/01/28 22:29:50;;;;;;;227.40;210.10;;;;;;;;;;5021416;28;20048;-79
2021/01/28 22:32:15;;;;;;;225.93;208.52;;;;;;;;;;5017342;28;20501;-79
2021/01/28 22:34:41;;;;;;;233.73;216.25;;;;;;;;;;5019837;28;20040;-79
2021/01/28 22:37:06;;;;;;;219.85;203.07;;;;;;;;;;5022200;28;20018;-80
2021/01/28 22:39:32;;;;;;;236.52;218.55;;;;;;;;;;5019912;28;20113;-79
2021/01/28 22:41:57;;;;;;;231.05;213.63;;;;;;;;;;5027635;28;20045;-79
2021/01/28 22:44:23;;;;;;;224.05;206.60;;;;;;;;;;5025745;28;20529;-79
2021/01/28 22:46:48;;;;;;;219.27;202.38;;;;;;;;;;5028737;28;20021;-79
2021/01/28 22:49:14;;;;;;;228.27;210.52;;;;;;;;;;5025023;28;20033;-79
2021/01/28 22:51:39;;;;;;;249.75;230.68;;;;;;;;;;5021876;28;20048;-79
2021/01/28 22:54:05;;;;;;;222.73;205.70;;;;;;;;;;5028131;28;20378;-80
2021/01/28 22:56:30;;;;;;;253.70;234.35;;;;;;;;;;5023807;28;20025;-79
2021/01/28 22:58:56;;;;;;;224.65;207.00;;;;;;;;;;5020669;28;20085;-79
2021/01/28 23:01:21;;;;;;;243.15;224.48;;;;;;;;;;5018369;28;20412;-79
2021/01/28 23:03:47;;;;;;;239.93;221.27;;;;;;;;;;5024107;28;20037;-78
2021/01/28 23:06:13;;;;;;;217.80;201.13;;;;;;;;;;5022719;28;20595;-79
2021/01/28 23:08:38;;;;;;;1118.07;609.03;;;;;;;;;;5026522;28;20129;-79
2021/01/28 23:11:05;;;;;;;225.20;207.15;;;;;;;;;;5024441;28;20022;-80
2021/01/28 23:13:31;;;;;;;680.78;416.90;;;;;;;;;;5019913;28;20537;-80
2021/01/28 23:15:56;;;;;;;672.20;409.15;;;;;;;;;;5024455;28;20027;-80
2021/01/28 23:18:23;;;;;;;225.32;207.65;;;;;;;;;;5024444;28;20034;-79
2021/01/28 23:20:49;;;;;;;226.35;208.93;;;;;;;;;;5024010;28;20018;-80
2021/01/28 23:23:17;;;;;;;215.60;199.23;;;;;;;;;;5025055;28;20030;-80
2021/01/28 23:25:42;;;;;;;263.20;242.77;;;;;;;;;;5025717;28;20021;-79
2021/01/28 23:28:08;;;;;;;205.85;190.10;;;;;;;;;;5031128;28;20673;-80
2021/01/28 23:30:34;;;;;;;259.00;239.75;;;;;;;;;;5017420;28;20021;-80
2021/01/28 23:33:00;;;;;;;218.48;202.10;;;;;;;;;;5017829;28;20048;-80
2021/01/28 23:35:30;;;;;;;212.15;196.20;;;;;;;;;;5020332;28;20382;-80
2021/01/28 23:37:56;;;;;;;217.88;201.52;;;;;;;;;;5028358;28;20026;-80
2021/01/28 23:40:22;;;;;;;229.77;212.50;;;;;;;;;;5022470;28;20041;-79
2021/01/28 23:42:47;;;;;;;224.65;208.25;;;;;;;;;;5019111;28;20029;-80
2021/01/28 23:45:13;;;;;;;232.02;214.65;;;;;;;;;;5025664;28;20488;-79
2021/01/28 23:47:39;;;;;;;212.20;196.05;;;;;;;;;;5017359;28;20523;-80
2021/01/28 23:50:05;;;;;;;210.50;195.25;;;;;;;;;;5017897;28;20013;-80
2021/01/28 23:52:30;;;;;;;207.13;190.85;;;;;;;;;;5023092;28;20038;-81
2021/01/28 23:54:56;;;;;;;227.30;210.45;;;;;;;;;;5017505;28;20018;-80
2021/01/28 23:57:21;;;;;;;207.32;192.15;;;;;;;;;;5019971;28;20030;-79
2021/01/28 23:59:47;;;;;;;222.55;206.30;;;;;;;;;;5023352;28;20060;-79
